Terminal Aerodrome Forecast
Issued by NWS

Home | Current Version | Previous Version | Text Only | Print | Product List | Glossary On
Versions: 1 2 3 4 5 6 7 8 9 10 11 12 13 14 15 16 17 18 19 20 21
000
FTUS43 KIND 030800 AAB
TAFLAF
TAF AMD
KLAF 030819Z 0308/0406 12008KT P6SM BKN040 OVC080
      TEMPO 0309/0313 5SM -FZRAPL
     FM031300 14010KT 4SM -FZRA BR BKN015 OVC040
     FM031600 18012KT 3SM -RA BR OVC008
     FM032000 22013G22KT 3SM RA BR OVC008
     FM040000 27010KT 5SM -RA BR OVC009
     FM040500 32008KT 5SM -RASN BR OVC020
      AMD LTD TO CLD VIS AND WIND TIL 031400=

USA.gov is the U.S. government's official web portal to all federal, state and local government web resources and services.